Terminal Aerodrome Forecast
Issued by NWS

Home | Current Version | Previous Version | Text Only | Print | Product List | Glossary On
Versions: 1 2 3 4 5 6 7 8 9 10 11 12 13 14 15 16 17 18 19 20 21 22 23
626
FTUS41 KGYX 311123
TAFRKD
TAF
KRKD 311123Z 3112/0112 25004KT 1/2SM FG OVC001
     FM311230 26006KT P6SM SCT003
     FM311700 23010G15KT P6SM SKC
     FM312300 30005KT P6SM SKC
      AMD LTD TO CLD VIS AND WIND=

USA.gov is the U.S. government's official web portal to all federal, state and local government web resources and services.